sensor_id;sensor_type;location;lat;lon;timestamp;P1;durP1;ratioP1;P2;durP2;ratioP2
52180;SDS011;38158;53.338;6.514;2023-04-24T00:00:05;3.72;;;2.60;;
52180;SDS011;38158;53.338;6.514;2023-04-24T00:02:32;4.33;;;2.77;;
52180;SDS011;38158;53.338;6.514;2023-04-24T00:04:58;3.90;;;2.45;;
52180;SDS011;38158;53.338;6.514;2023-04-24T00:07:28;4.50;;;2.60;;
52180;SDS011;38158;53.338;6.514;2023-04-24T00:09:54;4.82;;;3.15;;
52180;SDS011;38158;53.338;6.514;2023-04-24T00:12:20;5.03;;;3.10;;
52180;SDS011;38158;53.338;6.514;2023-04-24T00:14:46;4.60;;;2.40;;
52180;SDS011;38158;53.338;6.514;2023-04-24T00:17:12;5.65;;;3.00;;
52180;SDS011;38158;53.338;6.514;2023-04-24T00:19:38;5.10;;;3.22;;
52180;SDS011;38158;53.338;6.514;2023-04-24T00:22:03;4.57;;;3.15;;
52180;SDS011;38158;53.338;6.514;2023-04-24T00:24:29;5.63;;;3.22;;
52180;SDS011;38158;53.338;6.514;2023-04-24T00:26:55;4.18;;;2.90;;
52180;SDS011;38158;53.338;6.514;2023-04-24T00:29:21;8.13;;;3.85;;
52180;SDS011;38158;53.338;6.514;2023-04-24T00:31:46;4.82;;;3.20;;
52180;SDS011;38158;53.338;6.514;2023-04-24T00:34:12;4.45;;;3.28;;
52180;SDS011;38158;53.338;6.514;2023-04-24T00:36:38;4.90;;;3.35;;
52180;SDS011;38158;53.338;6.514;2023-04-24T00:39:04;8.55;;;3.38;;
52180;SDS011;38158;53.338;6.514;2023-04-24T00:41:30;6.95;;;3.85;;
52180;SDS011;38158;53.338;6.514;2023-04-24T00:43:56;6.00;;;3.88;;
52180;SDS011;38158;53.338;6.514;2023-04-24T00:46:21;6.38;;;4.50;;
52180;SDS011;38158;53.338;6.514;2023-04-24T00:48:47;5.80;;;4.32;;
52180;SDS011;38158;53.338;6.514;2023-04-24T00:51:13;6.22;;;4.20;;
52180;SDS011;38158;53.338;6.514;2023-04-24T00:53:38;6.72;;;4.60;;
52180;SDS011;38158;53.338;6.514;2023-04-24T00:56:04;7.57;;;4.22;;
52180;SDS011;38158;53.338;6.514;2023-04-24T00:58:30;5.57;;;3.90;;
52180;SDS011;38158;53.338;6.514;2023-04-24T01:00:57;7.28;;;4.40;;
52180;SDS011;38158;53.338;6.514;2023-04-24T01:03:28;6.03;;;4.38;;
52180;SDS011;38158;53.338;6.514;2023-04-24T01:05:56;6.80;;;4.45;;
52180;SDS011;38158;53.338;6.514;2023-04-24T01:08:23;5.53;;;4.18;;
52180;SDS011;38158;53.338;6.514;2023-04-24T01:10:51;6.20;;;4.22;;
52180;SDS011;38158;53.338;6.514;2023-04-24T01:13:17;5.88;;;4.38;;
52180;SDS011;38158;53.338;6.514;2023-04-24T01:15:44;6.75;;;4.45;;
52180;SDS011;38158;53.338;6.514;2023-04-24T01:18:10;6.17;;;4.63;;
52180;SDS011;38158;53.338;6.514;2023-04-24T01:20:36;6.70;;;4.57;;
52180;SDS011;38158;53.338;6.514;2023-04-24T01:23:05;5.25;;;3.63;;
52180;SDS011;38158;53.338;6.514;2023-04-24T01:25:31;5.72;;;3.03;;
52180;SDS011;38158;53.338;6.514;2023-04-24T01:27:57;4.05;;;2.80;;
52180;SDS011;38158;53.338;6.514;2023-04-24T01:30:24;4.03;;;2.70;;
52180;SDS011;38158;53.338;6.514;2023-04-24T01:32:50;2.92;;;1.90;;
52180;SDS011;38158;53.338;6.514;2023-04-24T01:35:16;3.72;;;2.42;;
52180;SDS011;38158;53.338;6.514;2023-04-24T01:37:42;3.00;;;2.17;;
52180;SDS011;38158;53.338;6.514;2023-04-24T01:40:08;4.57;;;2.28;;
52180;SDS011;38158;53.338;6.514;2023-04-24T01:42:34;4.13;;;1.95;;
52180;SDS011;38158;53.338;6.514;2023-04-24T01:45:01;3.15;;;1.08;;
52180;SDS011;38158;53.338;6.514;2023-04-24T01:47:28;2.20;;;1.30;;
52180;SDS011;38158;53.338;6.514;2023-04-24T01:49:55;1.58;;;1.00;;
52180;SDS011;38158;53.338;6.514;2023-04-24T01:52:21;2.28;;;1.30;;
52180;SDS011;38158;53.338;6.514;2023-04-24T01:54:46;2.28;;;1.00;;
52180;SDS011;38158;53.338;6.514;2023-04-24T01:57:13;2.15;;;1.30;;
52180;SDS011;38158;53.338;6.514;2023-04-24T01:59:39;1.70;;;0.90;;
52180;SDS011;38158;53.338;6.514;2023-04-24T02:02:05;2.10;;;1.08;;
52180;SDS011;38158;53.338;6.514;2023-04-24T02:04:31;1.75;;;1.15;;
52180;SDS011;38158;53.338;6.514;2023-04-24T02:06:57;1.55;;;1.00;;
52180;SDS011;38158;53.338;6.514;2023-04-24T02:09:22;3.20;;;1.30;;
52180;SDS011;38158;53.338;6.514;2023-04-24T02:11:48;1.88;;;1.23;;
52180;SDS011;38158;53.338;6.514;2023-04-24T02:14:14;1.90;;;1.17;;
52180;SDS011;38158;53.338;6.514;2023-04-24T02:16:40;1.98;;;1.00;;
52180;SDS011;38158;53.338;6.514;2023-04-24T02:19:05;1.80;;;1.10;;
52180;SDS011;38158;53.338;6.514;2023-04-24T02:21:31;2.28;;;1.20;;
52180;SDS011;38158;53.338;6.514;2023-04-24T02:23:57;2.10;;;1.08;;
52180;SDS011;38158;53.338;6.514;2023-04-24T02:26:23;1.75;;;1.10;;
52180;SDS011;38158;53.338;6.514;2023-04-24T02:28:49;1.98;;;1.38;;
52180;SDS011;38158;53.338;6.514;2023-04-24T02:31:15;2.05;;;1.45;;
52180;SDS011;38158;53.338;6.514;2023-04-24T02:33:40;2.20;;;1.40;;
52180;SDS011;38158;53.338;6.514;2023-04-24T02:36:06;1.90;;;1.08;;
52180;SDS011;38158;53.338;6.514;2023-04-24T02:38:32;1.98;;;1.35;;
52180;SDS011;38158;53.338;6.514;2023-04-24T02:40:57;1.70;;;1.13;;
52180;SDS011;38158;53.338;6.514;2023-04-24T02:43:23;2.03;;;1.48;;
52180;SDS011;38158;53.338;6.514;2023-04-24T02:45:49;4.30;;;1.90;;
52180;SDS011;38158;53.338;6.514;2023-04-24T02:48:14;2.58;;;1.73;;
52180;SDS011;38158;53.338;6.514;2023-04-24T02:50:40;2.67;;;1.40;;
52180;SDS011;38158;53.338;6.514;2023-04-24T02:53:06;2.60;;;1.70;;
52180;SDS011;38158;53.338;6.514;2023-04-24T02:55:32;2.30;;;1.52;;
52180;SDS011;38158;53.338;6.514;2023-04-24T02:57:57;4.18;;;2.17;;
52180;SDS011;38158;53.338;6.514;2023-04-24T03:00:23;2.67;;;1.88;;
52180;SDS011;38158;53.338;6.514;2023-04-24T03:02:49;5.25;;;2.20;;
52180;SDS011;38158;53.338;6.514;2023-04-24T03:05:15;4.22;;;2.28;;
52180;SDS011;38158;53.338;6.514;2023-04-24T03:07:41;3.40;;;2.30;;
52180;SDS011;38158;53.338;6.514;2023-04-24T03:10:07;3.17;;;2.65;;
52180;SDS011;38158;53.338;6.514;2023-04-24T03:12:33;4.32;;;2.55;;
52180;SDS011;38158;53.338;6.514;2023-04-24T03:14:58;3.88;;;2.53;;
52180;SDS011;38158;53.338;6.514;2023-04-24T03:17:24;4.32;;;2.88;;
52180;SDS011;38158;53.338;6.514;2023-04-24T03:19:50;4.30;;;3.05;;
52180;SDS011;38158;53.338;6.514;2023-04-24T03:22:16;4.10;;;2.55;;
52180;SDS011;38158;53.338;6.514;2023-04-24T03:24:41;5.60;;;3.47;;
52180;SDS011;38158;53.338;6.514;2023-04-24T03:27:07;5.18;;;3.42;;
52180;SDS011;38158;53.338;6.514;2023-04-24T03:29:33;5.45;;;4.03;;
52180;SDS011;38158;53.338;6.514;2023-04-24T03:31:58;5.50;;;3.92;;
52180;SDS011;38158;53.338;6.514;2023-04-24T03:34:24;5.35;;;3.97;;
52180;SDS011;38158;53.338;6.514;2023-04-24T03:36:50;4.82;;;3.33;;
52180;SDS011;38158;53.338;6.514;2023-04-24T03:39:15;6.03;;;4.47;;
52180;SDS011;38158;53.338;6.514;2023-04-24T03:41:41;6.70;;;3.78;;
52180;SDS011;38158;53.338;6.514;2023-04-24T03:44:07;4.97;;;3.90;;
52180;SDS011;38158;53.338;6.514;2023-04-24T03:46:32;5.35;;;4.18;;
52180;SDS011;38158;53.338;6.514;2023-04-24T03:48:58;5.40;;;4.35;;
52180;SDS011;38158;53.338;6.514;2023-04-24T03:51:24;5.72;;;4.10;;
52180;SDS011;38158;53.338;6.514;2023-04-24T03:53:50;6.03;;;4.82;;
52180;SDS011;38158;53.338;6.514;2023-04-24T03:56:16;6.00;;;4.70;;
52180;SDS011;38158;53.338;6.514;2023-04-24T03:58:42;7.03;;;4.70;;
52180;SDS011;38158;53.338;6.514;2023-04-24T04:01:07;6.38;;;4.63;;
52180;SDS011;38158;53.338;6.514;2023-04-24T04:03:33;6.50;;;5.13;;
52180;SDS011;38158;53.338;6.514;2023-04-24T04:05:59;6.72;;;4.65;;
52180;SDS011;38158;53.338;6.514;2023-04-24T04:08:25;6.60;;;5.10;;
52180;SDS011;38158;53.338;6.514;2023-04-24T04:10:50;7.75;;;5.55;;
52180;SDS011;38158;53.338;6.514;2023-04-24T04:13:16;7.28;;;4.90;;
52180;SDS011;38158;53.338;6.514;2023-04-24T04:15:42;6.88;;;5.63;;
52180;SDS011;38158;53.338;6.514;2023-04-24T04:18:07;6.80;;;4.60;;
52180;SDS011;38158;53.338;6.514;2023-04-24T04:20:33;7.75;;;5.75;;
52180;SDS011;38158;53.338;6.514;2023-04-24T04:22:59;8.05;;;6.28;;
52180;SDS011;38158;53.338;6.514;2023-04-24T04:25:25;9.90;;;6.05;;
52180;SDS011;38158;53.338;6.514;2023-04-24T04:27:50;8.13;;;6.15;;
52180;SDS011;38158;53.338;6.514;2023-04-24T04:30:17;9.40;;;6.33;;
52180;SDS011;38158;53.338;6.514;2023-04-24T04:32:43;9.15;;;6.47;;
52180;SDS011;38158;53.338;6.514;2023-04-24T04:35:09;9.98;;;6.05;;
52180;SDS011;38158;53.338;6.514;2023-04-24T04:37:35;6.80;;;5.18;;
52180;SDS011;38158;53.338;6.514;2023-04-24T04:40:01;7.30;;;4.82;;
52180;SDS011;38158;53.338;6.514;2023-04-24T04:42:31;5.55;;;3.65;;
52180;SDS011;38158;53.338;6.514;2023-04-24T04:44:59;5.40;;;3.70;;
52180;SDS011;38158;53.338;6.514;2023-04-24T04:47:25;6.47;;;3.05;;
52180;SDS011;38158;53.338;6.514;2023-04-24T04:49:53;5.53;;;2.80;;
52180;SDS011;38158;53.338;6.514;2023-04-24T04:52:19;6.50;;;3.72;;
52180;SDS011;38158;53.338;6.514;2023-04-24T04:54:49;7.00;;;4.65;;
52180;SDS011;38158;53.338;6.514;2023-04-24T04:57:15;8.43;;;4.80;;
52180;SDS011;38158;53.338;6.514;2023-04-24T04:59:41;7.97;;;4.90;;
52180;SDS011;38158;53.338;6.514;2023-04-24T05:02:07;9.70;;;5.00;;
52180;SDS011;38158;53.338;6.514;2023-04-24T05:04:32;7.30;;;3.90;;
52180;SDS011;38158;53.338;6.514;2023-04-24T05:06:58;8.77;;;5.10;;
52180;SDS011;38158;53.338;6.514;2023-04-24T05:09:24;6.50;;;4.10;;
52180;SDS011;38158;53.338;6.514;2023-04-24T05:11:52;9.98;;;2.97;;
52180;SDS011;38158;53.338;6.514;2023-04-24T05:14:18;5.85;;;2.78;;
52180;SDS011;38158;53.338;6.514;2023-04-24T05:16:44;6.97;;;3.22;;
52180;SDS011;38158;53.338;6.514;2023-04-24T05:19:10;7.10;;;3.90;;
52180;SDS011;38158;53.338;6.514;2023-04-24T05:21:37;9.55;;;3.85;;
52180;SDS011;38158;53.338;6.514;2023-04-24T05:24:04;8.35;;;3.95;;
52180;SDS011;38158;53.338;6.514;2023-04-24T05:26:30;8.75;;;4.85;;
52180;SDS011;38158;53.338;6.514;2023-04-24T05:28:56;8.65;;;4.38;;
52180;SDS011;38158;53.338;6.514;2023-04-24T05:31:21;8.27;;;4.60;;
52180;SDS011;38158;53.338;6.514;2023-04-24T05:33:47;6.97;;;3.53;;
52180;SDS011;38158;53.338;6.514;2023-04-24T05:36:13;5.88;;;3.30;;
52180;SDS011;38158;53.338;6.514;2023-04-24T05:38:38;5.70;;;2.60;;
52180;SDS011;38158;53.338;6.514;2023-04-24T05:41:04;5.97;;;2.85;;
52180;SDS011;38158;53.338;6.514;2023-04-24T05:43:30;6.40;;;2.50;;
52180;SDS011;38158;53.338;6.514;2023-04-24T05:45:56;7.63;;;3.35;;
52180;SDS011;38158;53.338;6.514;2023-04-24T05:48:21;6.07;;;3.15;;
52180;SDS011;38158;53.338;6.514;2023-04-24T05:50:47;5.32;;;3.42;;
52180;SDS011;38158;53.338;6.514;2023-04-24T05:53:13;5.47;;;3.28;;
52180;SDS011;38158;53.338;6.514;2023-04-24T05:55:39;4.70;;;2.50;;
52180;SDS011;38158;53.338;6.514;2023-04-24T05:58:05;6.35;;;3.22;;
52180;SDS011;38158;53.338;6.514;2023-04-24T06:00:31;5.38;;;3.15;;
52180;SDS011;38158;53.338;6.514;2023-04-24T06:02:58;6.97;;;3.25;;
52180;SDS011;38158;53.338;6.514;2023-04-24T06:05:25;7.07;;;3.10;;
52180;SDS011;38158;53.338;6.514;2023-04-24T06:07:51;5.75;;;3.17;;
52180;SDS011;38158;53.338;6.514;2023-04-24T06:10:17;5.95;;;2.92;;
52180;SDS011;38158;53.338;6.514;2023-04-24T06:12:43;5.00;;;2.33;;
52180;SDS011;38158;53.338;6.514;2023-04-24T06:15:08;5.18;;;2.85;;
52180;SDS011;38158;53.338;6.514;2023-04-24T06:17:34;6.07;;;2.40;;
52180;SDS011;38158;53.338;6.514;2023-04-24T06:20:00;5.30;;;2.25;;
52180;SDS011;38158;53.338;6.514;2023-04-24T06:22:26;5.80;;;2.28;;
52180;SDS011;38158;53.338;6.514;2023-04-24T06:24:52;5.45;;;2.80;;
52180;SDS011;38158;53.338;6.514;2023-04-24T06:27:17;7.75;;;2.97;;
52180;SDS011;38158;53.338;6.514;2023-04-24T06:29:43;10.07;;;4.10;;
52180;SDS011;38158;53.338;6.514;2023-04-24T06:32:09;5.05;;;2.80;;
52180;SDS011;38158;53.338;6.514;2023-04-24T06:34:35;8.25;;;3.50;;
52180;SDS011;38158;53.338;6.514;2023-04-24T06:37:01;6.30;;;2.60;;
52180;SDS011;38158;53.338;6.514;2023-04-24T06:39:27;4.60;;;2.17;;
52180;SDS011;38158;53.338;6.514;2023-04-24T06:41:53;9.13;;;2.90;;
52180;SDS011;38158;53.338;6.514;2023-04-24T06:44:19;2.97;;;1.30;;
52180;SDS011;38158;53.338;6.514;2023-04-24T06:46:44;2.45;;;1.10;;
52180;SDS011;38158;53.338;6.514;2023-04-24T06:49:10;4.15;;;1.90;;
52180;SDS011;38158;53.338;6.514;2023-04-24T06:51:36;4.05;;;1.63;;
52180;SDS011;38158;53.338;6.514;2023-04-24T06:54:02;3.50;;;1.88;;
52180;SDS011;38158;53.338;6.514;2023-04-24T06:56:27;4.70;;;1.63;;
52180;SDS011;38158;53.338;6.514;2023-04-24T06:58:54;5.20;;;2.10;;
52180;SDS011;38158;53.338;6.514;2023-04-24T07:01:20;8.95;;;2.28;;
52180;SDS011;38158;53.338;6.514;2023-04-24T07:03:46;3.28;;;1.38;;
52180;SDS011;38158;53.338;6.514;2023-04-24T07:06:11;4.57;;;1.30;;
52180;SDS011;38158;53.338;6.514;2023-04-24T07:08:37;2.80;;;1.20;;
52180;SDS011;38158;53.338;6.514;2023-04-24T07:11:03;3.95;;;1.67;;
52180;SDS011;38158;53.338;6.514;2023-04-24T07:13:29;2.75;;;1.17;;
52180;SDS011;38158;53.338;6.514;2023-04-24T07:15:55;3.55;;;1.08;;
52180;SDS011;38158;53.338;6.514;2023-04-24T07:18:21;4.28;;;1.35;;
52180;SDS011;38158;53.338;6.514;2023-04-24T07:20:47;5.38;;;1.50;;
52180;SDS011;38158;53.338;6.514;2023-04-24T07:23:15;2.85;;;1.83;;
52180;SDS011;38158;53.338;6.514;2023-04-24T07:25:41;5.22;;;2.20;;
52180;SDS011;38158;53.338;6.514;2023-04-24T07:28:07;5.38;;;2.30;;
52180;SDS011;38158;53.338;6.514;2023-04-24T07:30:33;3.83;;;1.85;;
52180;SDS011;38158;53.338;6.514;2023-04-24T07:32:59;5.05;;;2.00;;
52180;SDS011;38158;53.338;6.514;2023-04-24T07:35:25;4.70;;;1.70;;
52180;SDS011;38158;53.338;6.514;2023-04-24T07:37:54;5.20;;;1.83;;
52180;SDS011;38158;53.338;6.514;2023-04-24T07:40:20;6.00;;;2.35;;
52180;SDS011;38158;53.338;6.514;2023-04-24T07:42:46;4.35;;;2.53;;
52180;SDS011;38158;53.338;6.514;2023-04-24T07:45:13;6.13;;;2.60;;
52180;SDS011;38158;53.338;6.514;2023-04-24T07:47:43;10.15;;;3.50;;
52180;SDS011;38158;53.338;6.514;2023-04-24T07:50:10;8.60;;;4.53;;
52180;SDS011;38158;53.338;6.514;2023-04-24T07:52:37;8.05;;;4.60;;
52180;SDS011;38158;53.338;6.514;2023-04-24T07:55:03;10.45;;;4.82;;
52180;SDS011;38158;53.338;6.514;2023-04-24T07:57:29;8.07;;;4.57;;
52180;SDS011;38158;53.338;6.514;2023-04-24T07:59:55;11.43;;;6.35;;
52180;SDS011;38158;53.338;6.514;2023-04-24T08:02:21;14.38;;;7.57;;
52180;SDS011;38158;53.338;6.514;2023-04-24T08:04:51;15.73;;;8.40;;
52180;SDS011;38158;53.338;6.514;2023-04-24T08:07:19;14.10;;;8.45;;
52180;SDS011;38158;53.338;6.514;2023-04-24T08:09:44;17.48;;;9.55;;
52180;SDS011;38158;53.338;6.514;2023-04-24T08:12:10;19.45;;;11.38;;
52180;SDS011;38158;53.338;6.514;2023-04-24T08:14:36;18.58;;;10.07;;
52180;SDS011;38158;53.338;6.514;2023-04-24T08:17:01;17.15;;;9.88;;
52180;SDS011;38158;53.338;6.514;2023-04-24T08:19:28;17.00;;;8.47;;
52180;SDS011;38158;53.338;6.514;2023-04-24T08:21:54;18.70;;;9.68;;
52180;SDS011;38158;53.338;6.514;2023-04-24T08:24:20;16.33;;;9.10;;
52180;SDS011;38158;53.338;6.514;2023-04-24T08:26:45;16.40;;;9.05;;
52180;SDS011;38158;53.338;6.514;2023-04-24T08:29:14;19.70;;;10.10;;
52180;SDS011;38158;53.338;6.514;2023-04-24T08:31:40;16.92;;;8.25;;
52180;SDS011;38158;53.338;6.514;2023-04-24T08:34:05;19.08;;;8.30;;
52180;SDS011;38158;53.338;6.514;2023-04-24T08:36:31;11.70;;;6.88;;
52180;SDS011;38158;53.338;6.514;2023-04-24T08:38:57;14.57;;;7.57;;
52180;SDS011;38158;53.338;6.514;2023-04-24T08:41:23;15.55;;;6.90;;
52180;SDS011;38158;53.338;6.514;2023-04-24T08:43:51;21.02;;;7.43;;
52180;SDS011;38158;53.338;6.514;2023-04-24T08:46:17;15.27;;;6.80;;
52180;SDS011;38158;53.338;6.514;2023-04-24T08:51:10;15.00;;;7.65;;
52180;SDS011;38158;53.338;6.514;2023-04-24T08:53:36;20.48;;;8.52;;
52180;SDS011;38158;53.338;6.514;2023-04-24T08:56:03;14.70;;;7.83;;
52180;SDS011;38158;53.338;6.514;2023-04-24T08:58:29;14.32;;;7.65;;
52180;SDS011;38158;53.338;6.514;2023-04-24T09:00:56;17.08;;;8.30;;
52180;SDS011;38158;53.338;6.514;2023-04-24T09:03:23;15.15;;;7.60;;
52180;SDS011;38158;53.338;6.514;2023-04-24T09:05:52;12.35;;;5.85;;
52180;SDS011;38158;53.338;6.514;2023-04-24T09:08:19;11.43;;;5.47;;
52180;SDS011;38158;53.338;6.514;2023-04-24T09:10:48;10.48;;;5.30;;
52180;SDS011;38158;53.338;6.514;2023-04-24T09:13:14;11.18;;;5.90;;
52180;SDS011;38158;53.338;6.514;2023-04-24T09:15:40;11.05;;;6.28;;
52180;SDS011;38158;53.338;6.514;2023-04-24T09:18:07;11.18;;;5.85;;
52180;SDS011;38158;53.338;6.514;2023-04-24T09:20:33;11.25;;;5.03;;
52180;SDS011;38158;53.338;6.514;2023-04-24T09:23:01;10.00;;;5.40;;
52180;SDS011;38158;53.338;6.514;2023-04-24T09:25:33;10.90;;;5.00;;
52180;SDS011;38158;53.338;6.514;2023-04-24T09:28:04;7.78;;;4.65;;
52180;SDS011;38158;53.338;6.514;2023-04-24T09:30:31;8.68;;;3.92;;
52180;SDS011;38158;53.338;6.514;2023-04-24T09:33:09;9.82;;;4.20;;
52180;SDS011;38158;53.338;6.514;2023-04-24T09:35:35;10.05;;;4.80;;
52180;SDS011;38158;53.338;6.514;2023-04-24T09:38:01;11.57;;;5.72;;
52180;SDS011;38158;53.338;6.514;2023-04-24T09:40:27;13.82;;;5.20;;
52180;SDS011;38158;53.338;6.514;2023-04-24T09:42:53;10.80;;;4.75;;
52180;SDS011;38158;53.338;6.514;2023-04-24T09:45:34;14.00;;;5.30;;
52180;SDS011;38158;53.338;6.514;2023-04-24T09:48:01;8.90;;;3.55;;
52180;SDS011;38158;53.338;6.514;2023-04-24T09:50:29;14.38;;;4.22;;
52180;SDS011;38158;53.338;6.514;2023-04-24T09:53:03;12.93;;;4.78;;
52180;SDS011;38158;53.338;6.514;2023-04-24T09:55:30;11.13;;;4.20;;
52180;SDS011;38158;53.338;6.514;2023-04-24T09:58:00;8.73;;;3.60;;
52180;SDS011;38158;53.338;6.514;2023-04-24T10:02:58;7.65;;;3.58;;
52180;SDS011;38158;53.338;6.514;2023-04-24T10:05:27;9.13;;;3.80;;
52180;SDS011;38158;53.338;6.514;2023-04-24T10:08:10;8.30;;;3.63;;
52180;SDS011;38158;53.338;6.514;2023-04-24T10:10:41;10.07;;;3.13;;
52180;SDS011;38158;53.338;6.514;2023-04-24T10:13:11;6.18;;;3.05;;
52180;SDS011;38158;53.338;6.514;2023-04-24T10:15:38;7.38;;;3.05;;
52180;SDS011;38158;53.338;6.514;2023-04-24T10:18:05;7.18;;;2.78;;
52180;SDS011;38158;53.338;6.514;2023-04-24T10:20:33;8.13;;;2.78;;
52180;SDS011;38158;53.338;6.514;2023-04-24T10:25:26;5.63;;;2.65;;
52180;SDS011;38158;53.338;6.514;2023-04-24T10:27:55;6.22;;;2.40;;
52180;SDS011;38158;53.338;6.514;2023-04-24T10:30:24;4.40;;;1.95;;
52180;SDS011;38158;53.338;6.514;2023-04-24T10:32:51;5.60;;;2.38;;
52180;SDS011;38158;53.338;6.514;2023-04-24T10:35:16;6.72;;;2.00;;
52180;SDS011;38158;53.338;6.514;2023-04-24T10:37:47;8.27;;;2.55;;
52180;SDS011;38158;53.338;6.514;2023-04-24T10:40:19;6.50;;;1.83;;
52180;SDS011;38158;53.338;6.514;2023-04-24T10:42:51;6.53;;;1.83;;
52180;SDS011;38158;53.338;6.514;2023-04-24T10:45:20;5.05;;;2.15;;
52180;SDS011;38158;53.338;6.514;2023-04-24T10:47:51;4.63;;;1.85;;
52180;SDS011;38158;53.338;6.514;2023-04-24T10:50:28;8.02;;;1.95;;
52180;SDS011;38158;53.338;6.514;2023-04-24T10:53:04;6.63;;;1.80;;
52180;SDS011;38158;53.338;6.514;2023-04-24T10:55:51;5.90;;;1.70;;
52180;SDS011;38158;53.338;6.514;2023-04-24T11:01:03;7.00;;;1.98;;
52180;SDS011;38158;53.338;6.514;2023-04-24T11:03:29;8.48;;;1.67;;
52180;SDS011;38158;53.338;6.514;2023-04-24T11:06:00;6.13;;;2.08;;
52180;SDS011;38158;53.338;6.514;2023-04-24T11:08:29;12.30;;;2.67;;
52180;SDS011;38158;53.338;6.514;2023-04-24T11:16:52;22.05;;;2.03;;
52180;SDS011;38158;53.338;6.514;2023-04-24T11:19:23;4.05;;;0.85;;
52180;SDS011;38158;53.338;6.514;2023-04-24T11:21:57;5.95;;;1.10;;
52180;SDS011;38158;53.338;6.514;2023-04-24T11:24:35;6.03;;;1.30;;
52180;SDS011;38158;53.338;6.514;2023-04-24T11:27:16;6.50;;;1.77;;
52180;SDS011;38158;53.338;6.514;2023-04-24T11:29:46;4.22;;;1.35;;
52180;SDS011;38158;53.338;6.514;2023-04-24T11:32:17;6.80;;;1.27;;
52180;SDS011;38158;53.338;6.514;2023-04-24T11:37:43;9.45;;;1.42;;
52180;SDS011;38158;53.338;6.514;2023-04-24T11:40:17;6.35;;;1.60;;
52180;SDS011;38158;53.338;6.514;2023-04-24T11:42:48;5.28;;;1.05;;
52180;SDS011;38158;53.338;6.514;2023-04-24T11:45:15;6.00;;;0.93;;
52180;SDS011;38158;53.338;6.514;2023-04-24T11:47:43;5.10;;;1.15;;
52180;SDS011;38158;53.338;6.514;2023-04-24T11:50:19;6.28;;;1.13;;
52180;SDS011;38158;53.338;6.514;2023-04-24T11:52:48;4.95;;;0.85;;
52180;SDS011;38158;53.338;6.514;2023-04-24T11:57:44;5.72;;;1.08;;
52180;SDS011;38158;53.338;6.514;2023-04-24T12:00:23;6.03;;;1.23;;
52180;SDS011;38158;53.338;6.514;2023-04-24T12:02:50;3.30;;;0.95;;
52180;SDS011;38158;53.338;6.514;2023-04-24T12:05:23;4.78;;;1.00;;
52180;SDS011;38158;53.338;6.514;2023-04-24T12:07:51;11.07;;;1.48;;
52180;SDS011;38158;53.338;6.514;2023-04-24T12:10:21;8.23;;;1.00;;
52180;SDS011;38158;53.338;6.514;2023-04-24T12:12:47;3.22;;;0.65;;
52180;SDS011;38158;53.338;6.514;2023-04-24T12:15:15;5.03;;;0.90;;
52180;SDS011;38158;53.338;6.514;2023-04-24T12:17:42;4.22;;;1.30;;
52180;SDS011;38158;53.338;6.514;2023-04-24T12:20:08;4.78;;;0.80;;
52180;SDS011;38158;53.338;6.514;2023-04-24T12:22:45;2.77;;;0.70;;
52180;SDS011;38158;53.338;6.514;2023-04-24T12:25:14;5.43;;;0.90;;
52180;SDS011;38158;53.338;6.514;2023-04-24T12:27:41;6.50;;;0.95;;
52180;SDS011;38158;53.338;6.514;2023-04-24T12:30:12;6.07;;;1.30;;
52180;SDS011;38158;53.338;6.514;2023-04-24T12:32:43;6.78;;;1.08;;
52180;SDS011;38158;53.338;6.514;2023-04-24T12:35:10;3.33;;;0.73;;
52180;SDS011;38158;53.338;6.514;2023-04-24T12:37:36;4.50;;;1.30;;
52180;SDS011;38158;53.338;6.514;2023-04-24T12:42:31;2.47;;;0.60;;
52180;SDS011;38158;53.338;6.514;2023-04-24T12:44:59;4.63;;;0.70;;
52180;SDS011;38158;53.338;6.514;2023-04-24T12:47:30;4.72;;;1.00;;
52180;SDS011;38158;53.338;6.514;2023-04-24T12:49:56;4.25;;;0.70;;
52180;SDS011;38158;53.338;6.514;2023-04-24T12:52:22;2.97;;;0.88;;
52180;SDS011;38158;53.338;6.514;2023-04-24T12:54:49;5.20;;;1.13;;
52180;SDS011;38158;53.338;6.514;2023-04-24T12:57:16;5.53;;;1.02;;
52180;SDS011;38158;53.338;6.514;2023-04-24T12:59:42;7.13;;;0.50;;
52180;SDS011;38158;53.338;6.514;2023-04-24T13:02:09;5.50;;;0.60;;
52180;SDS011;38158;53.338;6.514;2023-04-24T13:04:35;6.03;;;0.70;;
52180;SDS011;38158;53.338;6.514;2023-04-24T13:07:01;7.07;;;0.60;;
52180;SDS011;38158;53.338;6.514;2023-04-24T13:09:27;5.32;;;1.00;;
52180;SDS011;38158;53.338;6.514;2023-04-24T13:11:54;7.30;;;0.90;;
52180;SDS011;38158;53.338;6.514;2023-04-24T13:14:21;4.32;;;0.60;;
52180;SDS011;38158;53.338;6.514;2023-04-24T13:16:47;4.18;;;0.50;;
52180;SDS011;38158;53.338;6.514;2023-04-24T13:19:13;3.78;;;0.85;;
52180;SDS011;38158;53.338;6.514;2023-04-24T13:21:38;4.32;;;0.73;;
52180;SDS011;38158;53.338;6.514;2023-04-24T13:24:04;3.38;;;0.40;;
52180;SDS011;38158;53.338;6.514;2023-04-24T13:26:30;4.90;;;0.93;;
52180;SDS011;38158;53.338;6.514;2023-04-24T13:28:56;3.15;;;0.60;;
52180;SDS011;38158;53.338;6.514;2023-04-24T13:31:22;1.60;;;0.43;;
52180;SDS011;38158;53.338;6.514;2023-04-24T13:33:47;2.80;;;0.70;;
52180;SDS011;38158;53.338;6.514;2023-04-24T13:36:13;2.88;;;0.40;;
52180;SDS011;38158;53.338;6.514;2023-04-24T13:38:39;2.47;;;0.43;;
52180;SDS011;38158;53.338;6.514;2023-04-24T13:41:04;2.38;;;0.52;;
52180;SDS011;38158;53.338;6.514;2023-04-24T13:43:30;2.78;;;0.32;;
52180;SDS011;38158;53.338;6.514;2023-04-24T13:45:56;2.13;;;0.40;;
52180;SDS011;38158;53.338;6.514;2023-04-24T13:48:21;3.40;;;0.50;;
52180;SDS011;38158;53.338;6.514;2023-04-24T13:50:47;2.90;;;0.90;;
52180;SDS011;38158;53.338;6.514;2023-04-24T13:53:14;2.40;;;0.65;;
52180;SDS011;38158;53.338;6.514;2023-04-24T13:55:40;5.00;;;0.90;;
52180;SDS011;38158;53.338;6.514;2023-04-24T13:58:06;3.28;;;0.68;;
52180;SDS011;38158;53.338;6.514;2023-04-24T14:00:32;3.35;;;0.93;;
52180;SDS011;38158;53.338;6.514;2023-04-24T14:02:58;4.60;;;0.65;;
52180;SDS011;38158;53.338;6.514;2023-04-24T14:05:24;2.47;;;0.60;;
52180;SDS011;38158;53.338;6.514;2023-04-24T14:07:50;4.38;;;0.65;;
52180;SDS011;38158;53.338;6.514;2023-04-24T14:10:16;4.03;;;0.80;;
52180;SDS011;38158;53.338;6.514;2023-04-24T14:12:42;4.78;;;1.30;;
52180;SDS011;38158;53.338;6.514;2023-04-24T14:15:07;4.15;;;0.80;;
52180;SDS011;38158;53.338;6.514;2023-04-24T14:17:34;3.28;;;0.75;;
52180;SDS011;38158;53.338;6.514;2023-04-24T14:20:00;7.15;;;1.30;;
52180;SDS011;38158;53.338;6.514;2023-04-24T14:22:25;5.35;;;1.33;;
52180;SDS011;38158;53.338;6.514;2023-04-24T14:24:51;6.75;;;2.30;;
52180;SDS011;38158;53.338;6.514;2023-04-24T14:27:17;5.13;;;1.45;;
52180;SDS011;38158;53.338;6.514;2023-04-24T14:29:42;6.32;;;1.40;;
52180;SDS011;38158;53.338;6.514;2023-04-24T14:32:10;5.88;;;1.55;;
52180;SDS011;38158;53.338;6.514;2023-04-24T14:34:36;5.78;;;1.25;;
52180;SDS011;38158;53.338;6.514;2023-04-24T14:37:01;3.70;;;1.50;;
52180;SDS011;38158;53.338;6.514;2023-04-24T14:39:28;4.55;;;1.35;;
52180;SDS011;38158;53.338;6.514;2023-04-24T14:41:54;10.73;;;1.75;;
52180;SDS011;38158;53.338;6.514;2023-04-24T14:44:20;8.98;;;1.55;;
52180;SDS011;38158;53.338;6.514;2023-04-24T14:46:47;4.40;;;1.65;;
52180;SDS011;38158;53.338;6.514;2023-04-24T14:49:13;10.00;;;2.35;;
52180;SDS011;38158;53.338;6.514;2023-04-24T14:51:39;8.13;;;2.00;;
52180;SDS011;38158;53.338;6.514;2023-04-24T14:54:06;7.53;;;2.13;;
52180;SDS011;38158;53.338;6.514;2023-04-24T14:56:32;6.78;;;1.92;;
52180;SDS011;38158;53.338;6.514;2023-04-24T14:58:57;5.05;;;1.75;;
52180;SDS011;38158;53.338;6.514;2023-04-24T15:01:23;7.45;;;2.03;;
52180;SDS011;38158;53.338;6.514;2023-04-24T15:03:49;8.20;;;2.00;;
52180;SDS011;38158;53.338;6.514;2023-04-24T15:06:15;9.40;;;2.30;;